createdAt,value
2023-01-11T00:00:49.714Z,10.40
2023-01-11T00:04:31.497Z,10.40
2023-01-11T00:08:13.411Z,10.30
2023-01-11T00:11:55.265Z,10.20
2023-01-11T00:15:38.531Z,10.20
2023-01-11T00:19:20.366Z,10.10
2023-01-11T00:23:02.089Z,10.10
2023-01-11T00:26:43.853Z,10.10
2023-01-11T00:30:25.814Z,10.10
2023-01-11T00:34:08.931Z,10.20
2023-01-11T00:37:50.722Z,10.10
2023-01-11T00:41:51.141Z,10.20
2023-01-11T00:45:51.738Z,10.20
2023-01-11T00:49:33.699Z,10.10
2023-01-11T00:53:15.649Z,10.10
2023-01-11T00:56:57.454Z,10.10
2023-01-11T01:00:39.213Z,10.00
2023-01-11T01:04:21.084Z,10.00
2023-01-11T01:08:02.827Z,10.00
2023-01-11T01:11:44.683Z,9.90
2023-01-11T01:15:26.841Z,9.90
2023-01-11T01:19:09.270Z,9.90
2023-01-11T01:22:51.330Z,9.80
2023-01-11T01:26:33.118Z,9.80
2023-01-11T01:30:14.978Z,9.80
2023-01-11T01:33:57.444Z,9.80
2023-01-11T01:37:39.456Z,9.80
2023-01-11T01:41:21.217Z,9.70
2023-01-11T01:45:25.393Z,9.70
2023-01-11T01:49:11.890Z,9.70
2023-01-11T01:52:57.815Z,9.60
2023-01-11T01:56:46.131Z,9.60
2023-01-11T02:00:28.031Z,9.50
2023-01-11T02:04:16.803Z,9.50
2023-01-11T02:08:00.879Z,9.50
2023-01-11T02:11:43.802Z,9.50
2023-01-11T02:15:27.389Z,9.50
2023-01-11T02:19:33.545Z,9.50
2023-01-11T02:23:34.689Z,9.40
2023-01-11T02:27:25.267Z,9.40
2023-01-11T02:31:50.910Z,9.30
2023-01-11T02:35:51.222Z,9.20
2023-01-11T02:40:13.491Z,9.10
2023-01-11T02:44:23.301Z,9.10
2023-01-11T02:48:29.919Z,9.10
2023-01-11T02:52:48.713Z,9.00
2023-01-11T02:56:36.165Z,8.90
2023-01-11T03:00:19.275Z,8.80
2023-01-11T03:04:01.011Z,8.70
2023-01-11T03:08:19.291Z,8.60
2023-01-11T03:12:35.822Z,8.50
2023-01-11T03:16:20.394Z,8.40
2023-01-11T03:20:13.824Z,8.30
2023-01-11T03:24:13.121Z,8.30
2023-01-11T03:28:18.512Z,8.20
2023-01-11T03:32:00.242Z,8.20
2023-01-11T03:35:41.927Z,8.10
2023-01-11T03:39:26.441Z,8.10
2023-01-11T03:43:11.678Z,8.10
2023-01-11T03:46:57.749Z,8.00
2023-01-11T03:50:41.564Z,8.00
2023-01-11T03:54:24.880Z,8.00
2023-01-11T03:58:08.941Z,8.00
2023-01-11T04:01:53.850Z,8.00
2023-01-11T04:05:36.866Z,8.00
2023-01-11T04:09:18.745Z,8.00
2023-01-11T04:13:00.479Z,8.00
2023-01-11T04:16:42.259Z,8.10
2023-01-11T04:20:24.073Z,8.10
2023-01-11T04:24:06.156Z,8.20
2023-01-11T04:27:47.888Z,8.20
2023-01-11T04:31:29.874Z,8.20
2023-01-11T04:35:11.679Z,8.20
2023-01-11T04:38:53.404Z,8.30
2023-01-11T04:42:35.133Z,8.20
2023-01-11T04:46:16.893Z,8.20
2023-01-11T04:49:58.732Z,8.30
2023-01-11T04:53:40.738Z,8.10
2023-01-11T04:57:22.722Z,8.10
2023-01-11T05:01:12.685Z,8.00
2023-01-11T05:04:54.460Z,8.00
2023-01-11T05:08:36.587Z,7.90
2023-01-11T05:12:18.370Z,7.90
2023-01-11T05:16:00.682Z,7.80
2023-01-11T05:19:43.057Z,7.80
2023-01-11T05:23:24.809Z,7.70
2023-01-11T05:27:06.516Z,7.70
2023-01-11T05:30:53.294Z,7.70
2023-01-11T05:34:35.265Z,7.70
2023-01-11T05:38:17.093Z,7.60
2023-01-11T05:41:58.839Z,7.60
2023-01-11T05:45:40.653Z,7.60
2023-01-11T05:49:22.396Z,7.60
2023-01-11T05:53:04.211Z,7.60
2023-01-11T05:56:46.021Z,7.70
2023-01-11T06:00:27.811Z,7.80
2023-01-11T06:04:09.728Z,7.90
2023-01-11T06:07:51.483Z,7.90
2023-01-11T06:11:33.257Z,8.00
2023-01-11T06:15:15.117Z,8.00
2023-01-11T06:18:56.856Z,8.00
2023-01-11T06:22:38.622Z,8.10
2023-01-11T06:26:22.488Z,8.00
2023-01-11T06:30:04.697Z,8.00
2023-01-11T06:33:47.395Z,7.90
2023-01-11T06:37:29.222Z,7.90
2023-01-11T06:41:11.960Z,7.80
2023-01-11T06:44:53.742Z,7.80
2023-01-11T06:48:36.289Z,7.80
2023-01-11T06:52:18.036Z,7.70
2023-01-11T06:55:59.944Z,7.60
2023-01-11T06:59:43.305Z,7.60
2023-01-11T07:03:25.936Z,7.50
2023-01-11T07:07:07.724Z,7.50
2023-01-11T07:10:49.534Z,7.50
2023-01-11T07:14:31.296Z,7.50
2023-01-11T07:18:13.075Z,7.40
2023-01-11T07:21:55.135Z,7.40
2023-01-11T07:25:37.108Z,7.40
2023-01-11T07:29:18.891Z,7.40
2023-01-11T07:33:00.852Z,7.40
2023-01-11T07:36:42.624Z,7.40
2023-01-11T07:40:24.367Z,7.40
2023-01-11T07:44:06.432Z,7.30
2023-01-11T07:47:52.402Z,7.30
2023-01-11T07:51:34.640Z,7.30
2023-01-11T07:55:16.799Z,7.30
2023-01-11T07:58:58.651Z,7.20
2023-01-11T08:02:40.621Z,7.30
2023-01-11T08:06:22.431Z,7.20
2023-01-11T08:10:05.006Z,7.20
2023-01-11T08:14:05.545Z,7.20
2023-01-11T08:17:47.305Z,7.20
2023-01-11T08:21:29.091Z,7.20
2023-01-11T08:25:11.386Z,7.20
2023-01-11T08:28:54.258Z,7.20
2023-01-11T08:32:35.993Z,7.20
2023-01-11T08:36:17.849Z,7.20
2023-01-11T08:39:59.630Z,7.20
2023-01-11T08:43:42.125Z,7.20
2023-01-11T08:47:23.963Z,7.20
2023-01-11T08:51:05.871Z,7.20
2023-01-11T08:54:47.612Z,7.20
2023-01-11T08:58:29.428Z,7.30
2023-01-11T09:02:13.095Z,7.30
2023-01-11T09:05:56.839Z,7.40
2023-01-11T09:09:38.600Z,7.40
2023-01-11T09:13:20.376Z,7.50
2023-01-11T09:17:02.195Z,7.50
2023-01-11T09:20:43.984Z,7.40
2023-01-11T09:24:25.819Z,7.60
2023-01-11T09:28:07.997Z,7.60
2023-01-11T09:31:49.932Z,7.60
2023-01-11T09:35:31.882Z,7.70
2023-01-11T09:39:17.014Z,7.70
2023-01-11T09:43:03.994Z,7.80
2023-01-11T09:46:51.341Z,7.80
2023-01-11T09:50:39.897Z,7.90
2023-01-11T09:54:27.672Z,8.00
2023-01-11T09:58:38.133Z,8.20
2023-01-11T10:02:52.241Z,8.60
2023-01-11T10:06:55.420Z,9.20
2023-01-11T10:18:28.389Z,10.40
2023-01-11T10:23:16.168Z,11.90
2023-01-11T10:27:03.816Z,12.60
2023-01-11T10:30:59.820Z,13.00
2023-01-11T10:34:59.535Z,13.30
2023-01-11T10:38:57.577Z,13.70
2023-01-11T10:42:57.019Z,14.10
2023-01-11T10:46:44.639Z,14.40
2023-01-11T10:50:41.301Z,14.70
2023-01-11T10:54:29.941Z,15.00
2023-01-11T10:58:18.669Z,15.30
2023-01-11T11:02:13.517Z,15.50
2023-01-11T11:06:13.867Z,15.60
2023-01-11T11:10:36.459Z,15.70
2023-01-11T11:14:27.701Z,15.20
2023-01-11T11:18:09.906Z,14.40
2023-01-11T11:21:54.737Z,13.80
2023-01-11T11:25:38.646Z,13.40
2023-01-11T11:29:23.203Z,13.10
2023-01-11T11:33:25.212Z,12.80
2023-01-11T11:37:18.678Z,12.50
2023-01-11T11:41:07.945Z,12.00
2023-01-11T11:45:11.474Z,11.80
2023-01-11T11:49:18.082Z,11.40
2023-01-11T11:53:03.819Z,10.80
2023-01-11T11:56:45.779Z,10.40
2023-01-11T12:00:30.922Z,10.00
2023-01-11T12:04:22.163Z,9.80
2023-01-11T12:08:04.358Z,9.60
2023-01-11T12:11:48.502Z,9.60
2023-01-11T12:15:32.238Z,9.60
2023-01-11T12:19:42.813Z,9.50
2023-01-11T12:23:26.315Z,9.60
2023-01-11T12:27:19.816Z,9.60
2023-01-11T12:31:10.418Z,9.60
2023-01-11T12:35:36.049Z,9.60
2023-01-11T12:39:53.901Z,9.60
2023-01-11T12:43:57.171Z,9.50
2023-01-11T12:48:00.164Z,9.50
2023-01-11T12:51:48.031Z,9.40
2023-01-11T12:55:38.431Z,9.40
2023-01-11T12:59:47.466Z,9.50
2023-01-11T13:03:35.072Z,9.60
2023-01-11T13:07:41.122Z,9.60
2023-01-11T13:11:42.748Z,9.70
2023-01-11T13:15:55.089Z,9.80
2023-01-11T13:19:51.393Z,9.80
2023-01-11T13:23:44.359Z,9.90
2023-01-11T13:27:28.917Z,9.80
2023-01-11T13:31:13.741Z,9.80
2023-01-11T13:35:05.839Z,9.80
2023-01-11T13:39:00.440Z,9.80
2023-01-11T13:42:48.547Z,9.70
2023-01-11T13:46:52.598Z,9.70
2023-01-11T13:50:49.122Z,9.70
2023-01-11T13:54:53.509Z,9.70
2023-01-11T13:58:46.397Z,9.70
2023-01-11T14:02:39.828Z,9.70
2023-01-11T14:06:50.860Z,9.70
2023-01-11T14:10:39.021Z,9.70
2023-01-11T14:14:38.183Z,9.60
2023-01-11T14:18:34.295Z,9.50
2023-01-11T14:22:35.175Z,9.50
2023-01-11T14:26:47.832Z,9.40
2023-01-11T14:30:53.190Z,9.30
2023-01-11T14:34:39.331Z,9.10
2023-01-11T14:39:02.822Z,9.10
2023-01-11T14:43:05.541Z,9.00
2023-01-11T14:47:13.361Z,9.00
2023-01-11T14:51:32.504Z,9.00
2023-01-11T14:55:20.137Z,8.90
2023-01-11T14:59:07.548Z,8.70
2023-01-11T15:02:59.578Z,8.70
2023-01-11T15:06:55.187Z,8.60
2023-01-11T15:10:36.890Z,8.60
2023-01-11T15:14:28.787Z,8.50
2023-01-11T15:18:22.164Z,8.50
2023-01-11T15:22:06.006Z,8.50
2023-01-11T15:25:49.953Z,8.50
2023-01-11T15:29:35.638Z,8.50
2023-01-11T15:33:17.560Z,8.60
2023-01-11T15:37:11.247Z,8.60
2023-01-11T15:40:57.141Z,8.60
2023-01-11T15:45:28.267Z,8.60
2023-01-11T15:49:34.640Z,8.70
2023-01-11T15:53:41.285Z,8.70
2023-01-11T15:57:40.917Z,8.70
2023-01-11T16:01:30.743Z,8.80
2023-01-11T16:05:42.552Z,8.80
2023-01-11T16:09:41.554Z,8.80
2023-01-11T16:13:28.996Z,8.80
2023-01-11T16:17:15.277Z,8.80
2023-01-11T16:21:07.566Z,8.90
2023-01-11T16:24:55.837Z,8.80
2023-01-11T16:28:38.024Z,8.80
2023-01-11T16:32:21.319Z,8.90
2023-01-11T16:36:15.001Z,8.90
2023-01-11T16:40:04.762Z,8.90
2023-01-11T16:43:59.994Z,8.90
2023-01-11T16:47:41.799Z,9.00
2023-01-11T16:51:23.576Z,9.00
2023-01-11T16:55:43.060Z,9.00
2023-01-11T16:59:31.508Z,9.10
2023-01-11T17:03:28.878Z,9.10
2023-01-11T17:07:22.561Z,9.20
2023-01-11T17:11:32.697Z,9.20
2023-01-11T17:15:27.377Z,9.20
2023-01-11T17:19:27.434Z,9.20
2023-01-11T17:23:17.058Z,9.20
2023-01-11T17:27:01.997Z,9.20
2023-01-11T17:30:46.721Z,9.20
2023-01-11T17:34:37.829Z,9.20
2023-01-11T17:38:23.885Z,9.20
2023-01-11T17:42:26.272Z,9.10
2023-01-11T17:46:15.506Z,9.20
2023-01-11T17:50:00.954Z,9.20
2023-01-11T17:53:49.365Z,9.20
2023-01-11T17:57:31.832Z,9.20
2023-01-11T18:01:15.307Z,9.20
2023-01-11T18:04:59.780Z,9.30
2023-01-11T18:08:47.234Z,9.30
2023-01-11T18:12:32.710Z,9.30
2023-01-11T18:16:19.484Z,9.40
2023-01-11T18:20:14.595Z,9.50
2023-01-11T18:24:11.380Z,9.50
2023-01-11T18:28:23.503Z,9.50
2023-01-11T18:32:08.405Z,9.60
2023-01-11T18:35:53.423Z,9.70
2023-01-11T18:39:35.756Z,9.70
2023-01-11T18:43:24.191Z,9.80
2023-01-11T18:47:24.147Z,9.80
2023-01-11T18:51:06.163Z,9.90
2023-01-11T18:54:48.287Z,9.90
2023-01-11T18:58:30.039Z,9.90
2023-01-11T19:02:23.669Z,9.90
2023-01-11T19:06:06.253Z,9.90
2023-01-11T19:09:48.101Z,9.90
2023-01-11T19:13:30.345Z,9.90
2023-01-11T19:17:13.347Z,9.90
2023-01-11T19:21:00.064Z,9.90
2023-01-11T19:24:41.903Z,9.90
2023-01-11T19:28:23.842Z,9.90
2023-01-11T19:32:05.995Z,9.90
2023-01-11T19:35:49.394Z,9.90
2023-01-11T19:39:31.398Z,10.00
2023-01-11T19:43:13.433Z,10.00
2023-01-11T19:47:09.574Z,9.90
2023-01-11T19:50:51.873Z,10.00
2023-01-11T19:54:33.644Z,10.00
2023-01-11T19:58:15.427Z,10.00
2023-01-11T20:01:57.373Z,10.00
2023-01-11T20:05:39.141Z,10.10
2023-01-11T20:09:22.006Z,10.10
2023-01-11T20:13:03.831Z,10.10
2023-01-11T20:16:45.907Z,10.10
2023-01-11T20:20:27.659Z,10.10
2023-01-11T20:24:13.063Z,10.10
2023-01-11T20:27:54.816Z,10.10
2023-01-11T20:31:36.782Z,10.10
2023-01-11T20:35:18.595Z,10.10
2023-01-11T20:39:00.348Z,10.10
2023-01-11T20:42:42.307Z,10.10
2023-01-11T20:46:24.114Z,10.10
2023-01-11T20:50:06.379Z,10.10
2023-01-11T20:53:48.217Z,10.00
2023-01-11T20:57:30.034Z,10.10
2023-01-11T21:01:12.191Z,10.10
2023-01-11T21:04:53.997Z,10.10
2023-01-11T21:08:36.716Z,10.10
2023-01-11T21:12:19.532Z,10.10
2023-01-11T21:16:15.700Z,10.10
2023-01-11T21:19:57.513Z,10.20
2023-01-11T21:23:39.359Z,10.10
2023-01-11T21:27:21.188Z,10.10
2023-01-11T21:31:04.433Z,10.10
2023-01-11T21:34:46.344Z,10.20
2023-01-11T21:38:31.001Z,10.20
2023-01-11T21:42:12.742Z,10.20
2023-01-11T21:45:55.714Z,10.20
2023-01-11T21:49:37.569Z,10.20
2023-01-11T21:53:19.947Z,10.30
2023-01-11T21:57:01.707Z,10.20
2023-01-11T22:00:43.548Z,10.20
2023-01-11T22:04:25.347Z,10.20
2023-01-11T22:08:07.146Z,10.20
2023-01-11T22:11:49.608Z,10.20
2023-01-11T22:15:31.324Z,10.10
2023-01-11T22:19:13.794Z,10.10
2023-01-11T22:22:55.544Z,10.10
2023-01-11T22:26:38.982Z,10.10
2023-01-11T22:30:20.964Z,10.00
2023-01-11T22:34:02.718Z,10.00
2023-01-11T22:37:44.571Z,10.10
2023-01-11T22:41:26.427Z,10.10
2023-01-11T22:45:09.792Z,10.10
2023-01-11T22:48:52.363Z,10.10
2023-01-11T22:52:34.149Z,10.10
2023-01-11T22:56:22.301Z,10.10
2023-01-11T23:00:05.723Z,10.10
2023-01-11T23:03:48.599Z,10.20
2023-01-11T23:07:30.376Z,10.20
2023-01-11T23:11:36.210Z,10.20
2023-01-11T23:15:17.978Z,10.20
2023-01-11T23:19:00.356Z,10.30
2023-01-11T23:22:42.370Z,10.30
2023-01-11T23:26:24.300Z,10.30
2023-01-11T23:30:06.871Z,10.40
2023-01-11T23:33:51.336Z,10.40
2023-01-11T23:37:33.104Z,10.40
2023-01-11T23:41:35.877Z,10.40
2023-01-11T23:45:17.631Z,10.40
2023-01-11T23:48:59.387Z,10.50
2023-01-11T23:52:41.116Z,10.50
2023-01-11T23:56:22.847Z,10.50
